sensor_id;sensor_type;location;lat;lon;timestamp;P1;durP1;ratioP1;P2;durP2;ratioP2
3647;SDS011;1840;48.892;15.312;2022-08-23T00:00:00;4.60;;;3.80;;
3647;SDS011;1840;48.892;15.312;2022-08-23T00:02:39;5.17;;;4.10;;
3647;SDS011;1840;48.892;15.312;2022-08-23T00:05:08;4.57;;;4.00;;
3647;SDS011;1840;48.892;15.312;2022-08-23T00:07:38;6.80;;;5.17;;
3647;SDS011;1840;48.892;15.312;2022-08-23T00:10:09;6.60;;;5.30;;
3647;SDS011;1840;48.892;15.312;2022-08-23T00:12:41;5.63;;;4.53;;
3647;SDS011;1840;48.892;15.312;2022-08-23T00:15:11;8.30;;;5.23;;
3647;SDS011;1840;48.892;15.312;2022-08-23T00:17:41;8.57;;;5.07;;
3647;SDS011;1840;48.892;15.312;2022-08-23T00:20:11;6.97;;;5.07;;
3647;SDS011;1840;48.892;15.312;2022-08-23T00:22:42;5.83;;;4.70;;
3647;SDS011;1840;48.892;15.312;2022-08-23T00:25:11;6.67;;;4.87;;
3647;SDS011;1840;48.892;15.312;2022-08-23T00:27:42;13.50;;;6.30;;
3647;SDS011;1840;48.892;15.312;2022-08-23T00:30:10;5.53;;;4.60;;
3647;SDS011;1840;48.892;15.312;2022-08-23T00:32:39;7.00;;;6.10;;
3647;SDS011;1840;48.892;15.312;2022-08-23T00:35:09;5.90;;;5.10;;
3647;SDS011;1840;48.892;15.312;2022-08-23T00:37:52;8.23;;;6.17;;
3647;SDS011;1840;48.892;15.312;2022-08-23T00:40:41;7.93;;;6.30;;
3647;SDS011;1840;48.892;15.312;2022-08-23T00:43:13;5.90;;;4.90;;
3647;SDS011;1840;48.892;15.312;2022-08-23T00:46:02;6.90;;;5.40;;
3647;SDS011;1840;48.892;15.312;2022-08-23T00:48:53;6.90;;;5.07;;
3647;SDS011;1840;48.892;15.312;2022-08-23T00:51:22;6.00;;;5.00;;
3647;SDS011;1840;48.892;15.312;2022-08-23T00:54:16;7.53;;;6.00;;
3647;SDS011;1840;48.892;15.312;2022-08-23T00:56:46;7.10;;;6.37;;
3647;SDS011;1840;48.892;15.312;2022-08-23T00:59:16;7.20;;;6.20;;
3647;SDS011;1840;48.892;15.312;2022-08-23T01:01:44;7.10;;;5.63;;
3647;SDS011;1840;48.892;15.312;2022-08-23T01:04:13;5.40;;;4.73;;
3647;SDS011;1840;48.892;15.312;2022-08-23T01:06:43;6.80;;;5.93;;
3647;SDS011;1840;48.892;15.312;2022-08-23T01:09:16;7.80;;;6.27;;
3647;SDS011;1840;48.892;15.312;2022-08-23T01:11:48;5.20;;;4.30;;
3647;SDS011;1840;48.892;15.312;2022-08-23T01:14:23;5.83;;;4.37;;
3647;SDS011;1840;48.892;15.312;2022-08-23T01:16:56;7.83;;;5.90;;
3647;SDS011;1840;48.892;15.312;2022-08-23T01:19:31;6.27;;;4.20;;
3647;SDS011;1840;48.892;15.312;2022-08-23T01:22:04;5.23;;;4.07;;
3647;SDS011;1840;48.892;15.312;2022-08-23T01:24:40;4.13;;;3.70;;
3647;SDS011;1840;48.892;15.312;2022-08-23T01:27:28;5.53;;;3.13;;
3647;SDS011;1840;48.892;15.312;2022-08-23T01:29:58;4.20;;;3.33;;
3647;SDS011;1840;48.892;15.312;2022-08-23T01:32:26;3.80;;;2.87;;
3647;SDS011;1840;48.892;15.312;2022-08-23T01:34:55;4.10;;;2.93;;
3647;SDS011;1840;48.892;15.312;2022-08-23T01:37:23;4.00;;;2.80;;
3647;SDS011;1840;48.892;15.312;2022-08-23T01:39:53;5.03;;;3.43;;
3647;SDS011;1840;48.892;15.312;2022-08-23T01:42:21;3.00;;;2.47;;
3647;SDS011;1840;48.892;15.312;2022-08-23T01:44:49;3.53;;;2.73;;
3647;SDS011;1840;48.892;15.312;2022-08-23T01:47:17;3.90;;;2.90;;
3647;SDS011;1840;48.892;15.312;2022-08-23T01:49:46;3.00;;;2.50;;
3647;SDS011;1840;48.892;15.312;2022-08-23T01:52:14;2.90;;;2.27;;
3647;SDS011;1840;48.892;15.312;2022-08-23T01:54:42;3.30;;;2.63;;
3647;SDS011;1840;48.892;15.312;2022-08-23T01:57:11;4.10;;;3.03;;
3647;SDS011;1840;48.892;15.312;2022-08-23T01:59:41;4.10;;;3.13;;
3647;SDS011;1840;48.892;15.312;2022-08-23T02:02:10;4.93;;;3.40;;
3647;SDS011;1840;48.892;15.312;2022-08-23T02:04:38;4.03;;;2.63;;
3647;SDS011;1840;48.892;15.312;2022-08-23T02:07:06;5.50;;;3.30;;
3647;SDS011;1840;48.892;15.312;2022-08-23T02:09:34;4.80;;;3.20;;
3647;SDS011;1840;48.892;15.312;2022-08-23T02:12:02;7.37;;;2.97;;
3647;SDS011;1840;48.892;15.312;2022-08-23T02:14:33;10.37;;;3.00;;
3647;SDS011;1840;48.892;15.312;2022-08-23T02:17:06;3.70;;;3.00;;
3647;SDS011;1840;48.892;15.312;2022-08-23T02:19:34;7.10;;;3.47;;
3647;SDS011;1840;48.892;15.312;2022-08-23T02:22:04;5.03;;;3.80;;
3647;SDS011;1840;48.892;15.312;2022-08-23T02:24:33;3.33;;;2.83;;
3647;SDS011;1840;48.892;15.312;2022-08-23T02:27:05;3.30;;;2.57;;
3647;SDS011;1840;48.892;15.312;2022-08-23T02:29:35;3.77;;;2.80;;
3647;SDS011;1840;48.892;15.312;2022-08-23T02:32:05;3.00;;;2.30;;
3647;SDS011;1840;48.892;15.312;2022-08-23T02:34:41;3.97;;;3.00;;
3647;SDS011;1840;48.892;15.312;2022-08-23T02:37:23;3.27;;;2.23;;
3647;SDS011;1840;48.892;15.312;2022-08-23T02:39:51;2.60;;;1.90;;
3647;SDS011;1840;48.892;15.312;2022-08-23T02:42:19;3.40;;;2.27;;
3647;SDS011;1840;48.892;15.312;2022-08-23T02:44:49;3.00;;;2.00;;
3647;SDS011;1840;48.892;15.312;2022-08-23T02:47:17;2.60;;;2.00;;
3647;SDS011;1840;48.892;15.312;2022-08-23T02:49:45;2.87;;;2.13;;
3647;SDS011;1840;48.892;15.312;2022-08-23T02:52:13;3.33;;;2.33;;
3647;SDS011;1840;48.892;15.312;2022-08-23T02:54:41;1.93;;;1.30;;
3647;SDS011;1840;48.892;15.312;2022-08-23T02:57:10;2.50;;;1.50;;
3647;SDS011;1840;48.892;15.312;2022-08-23T02:59:38;6.03;;;1.50;;
3647;SDS011;1840;48.892;15.312;2022-08-23T03:02:07;4.07;;;1.63;;
3647;SDS011;1840;48.892;15.312;2022-08-23T03:04:37;2.10;;;1.30;;
3647;SDS011;1840;48.892;15.312;2022-08-23T03:07:05;3.40;;;1.27;;
3647;SDS011;1840;48.892;15.312;2022-08-23T03:09:33;1.97;;;1.10;;
3647;SDS011;1840;48.892;15.312;2022-08-23T03:12:01;4.83;;;1.80;;
3647;SDS011;1840;48.892;15.312;2022-08-23T03:14:30;1.90;;;1.10;;
3647;SDS011;1840;48.892;15.312;2022-08-23T03:16:58;2.40;;;1.10;;
3647;SDS011;1840;48.892;15.312;2022-08-23T03:19:28;4.80;;;1.30;;
3647;SDS011;1840;48.892;15.312;2022-08-23T03:21:56;4.17;;;1.13;;
3647;SDS011;1840;48.892;15.312;2022-08-23T03:24:24;2.00;;;1.20;;
3647;SDS011;1840;48.892;15.312;2022-08-23T03:26:53;4.87;;;1.50;;
3647;SDS011;1840;48.892;15.312;2022-08-23T03:29:21;4.30;;;1.60;;
3647;SDS011;1840;48.892;15.312;2022-08-23T03:31:50;2.20;;;1.30;;
3647;SDS011;1840;48.892;15.312;2022-08-23T03:34:19;2.40;;;1.20;;
3647;SDS011;1840;48.892;15.312;2022-08-23T03:36:49;3.87;;;1.50;;
3647;SDS011;1840;48.892;15.312;2022-08-23T03:39:17;7.90;;;1.93;;
3647;SDS011;1840;48.892;15.312;2022-08-23T03:41:45;3.07;;;1.63;;
3647;SDS011;1840;48.892;15.312;2022-08-23T03:44:13;5.03;;;2.23;;
3647;SDS011;1840;48.892;15.312;2022-08-23T03:46:41;2.37;;;1.60;;
3647;SDS011;1840;48.892;15.312;2022-08-23T03:49:09;3.70;;;1.57;;
3647;SDS011;1840;48.892;15.312;2022-08-23T03:51:38;2.70;;;1.73;;
3647;SDS011;1840;48.892;15.312;2022-08-23T03:54:07;5.73;;;1.63;;
3647;SDS011;1840;48.892;15.312;2022-08-23T03:56:37;3.60;;;1.63;;
3647;SDS011;1840;48.892;15.312;2022-08-23T03:59:15;3.07;;;1.50;;
3647;SDS011;1840;48.892;15.312;2022-08-23T04:01:43;3.60;;;1.70;;
3647;SDS011;1840;48.892;15.312;2022-08-23T04:04:12;2.40;;;1.70;;
3647;SDS011;1840;48.892;15.312;2022-08-23T04:06:40;2.33;;;1.60;;
3647;SDS011;1840;48.892;15.312;2022-08-23T04:09:11;2.43;;;1.57;;
3647;SDS011;1840;48.892;15.312;2022-08-23T04:11:40;2.70;;;1.93;;
3647;SDS011;1840;48.892;15.312;2022-08-23T04:14:09;4.03;;;1.90;;
3647;SDS011;1840;48.892;15.312;2022-08-23T04:16:38;2.77;;;1.53;;
3647;SDS011;1840;48.892;15.312;2022-08-23T04:19:07;4.10;;;2.00;;
3647;SDS011;1840;48.892;15.312;2022-08-23T04:21:40;2.93;;;1.47;;
3647;SDS011;1840;48.892;15.312;2022-08-23T04:24:12;4.13;;;1.50;;
3647;SDS011;1840;48.892;15.312;2022-08-23T04:26:41;2.30;;;1.50;;
3647;SDS011;1840;48.892;15.312;2022-08-23T04:29:13;3.00;;;1.77;;
3647;SDS011;1840;48.892;15.312;2022-08-23T04:31:59;3.13;;;1.77;;
3647;SDS011;1840;48.892;15.312;2022-08-23T04:34:33;2.97;;;1.67;;
3647;SDS011;1840;48.892;15.312;2022-08-23T04:37:02;2.60;;;1.70;;
3647;SDS011;1840;48.892;15.312;2022-08-23T04:39:36;4.03;;;1.57;;
3647;SDS011;1840;48.892;15.312;2022-08-23T04:42:19;3.23;;;1.90;;
3647;SDS011;1840;48.892;15.312;2022-08-23T04:44:48;4.33;;;1.73;;
3647;SDS011;1840;48.892;15.312;2022-08-23T04:47:17;2.23;;;1.63;;
3647;SDS011;1840;48.892;15.312;2022-08-23T04:49:46;2.70;;;1.80;;
3647;SDS011;1840;48.892;15.312;2022-08-23T04:52:14;3.97;;;1.23;;
3647;SDS011;1840;48.892;15.312;2022-08-23T04:54:46;3.20;;;1.57;;
3647;SDS011;1840;48.892;15.312;2022-08-23T04:57:14;3.07;;;1.90;;
3647;SDS011;1840;48.892;15.312;2022-08-23T04:59:42;3.33;;;2.10;;
3647;SDS011;1840;48.892;15.312;2022-08-23T05:02:10;4.00;;;1.60;;
3647;SDS011;1840;48.892;15.312;2022-08-23T05:04:39;3.20;;;1.97;;
3647;SDS011;1840;48.892;15.312;2022-08-23T05:07:07;2.60;;;1.60;;
3647;SDS011;1840;48.892;15.312;2022-08-23T05:09:36;3.40;;;1.97;;
3647;SDS011;1840;48.892;15.312;2022-08-23T05:12:06;2.60;;;1.70;;
3647;SDS011;1840;48.892;15.312;2022-08-23T05:14:34;3.17;;;1.70;;
3647;SDS011;1840;48.892;15.312;2022-08-23T05:17:02;3.60;;;2.00;;
3647;SDS011;1840;48.892;15.312;2022-08-23T05:19:30;2.40;;;1.60;;
3647;SDS011;1840;48.892;15.312;2022-08-23T05:21:59;2.60;;;1.67;;
3647;SDS011;1840;48.892;15.312;2022-08-23T05:24:28;2.23;;;1.60;;
3647;SDS011;1840;48.892;15.312;2022-08-23T05:26:56;2.33;;;1.53;;
3647;SDS011;1840;48.892;15.312;2022-08-23T05:29:26;2.27;;;1.50;;
3647;SDS011;1840;48.892;15.312;2022-08-23T05:31:54;4.10;;;2.07;;
3647;SDS011;1840;48.892;15.312;2022-08-23T05:34:22;8.37;;;2.10;;
3647;SDS011;1840;48.892;15.312;2022-08-23T05:36:51;2.23;;;1.50;;
3647;SDS011;1840;48.892;15.312;2022-08-23T05:39:21;3.20;;;1.70;;
3647;SDS011;1840;48.892;15.312;2022-08-23T05:42:01;9.20;;;1.97;;
3647;SDS011;1840;48.892;15.312;2022-08-23T05:44:31;3.67;;;1.80;;
3647;SDS011;1840;48.892;15.312;2022-08-23T05:47:01;2.13;;;1.53;;
3647;SDS011;1840;48.892;15.312;2022-08-23T05:49:35;2.10;;;1.63;;
3647;SDS011;1840;48.892;15.312;2022-08-23T05:52:04;2.63;;;1.80;;
3647;SDS011;1840;48.892;15.312;2022-08-23T05:54:34;2.63;;;1.30;;
3647;SDS011;1840;48.892;15.312;2022-08-23T05:57:03;2.03;;;1.40;;
3647;SDS011;1840;48.892;15.312;2022-08-23T05:59:33;7.13;;;4.10;;
3647;SDS011;1840;48.892;15.312;2022-08-23T06:02:01;2.33;;;1.53;;
3647;SDS011;1840;48.892;15.312;2022-08-23T06:04:29;2.47;;;1.73;;
3647;SDS011;1840;48.892;15.312;2022-08-23T06:06:58;2.27;;;1.20;;
3647;SDS011;1840;48.892;15.312;2022-08-23T06:09:26;2.27;;;1.40;;
3647;SDS011;1840;48.892;15.312;2022-08-23T06:11:54;1.90;;;1.13;;
3647;SDS011;1840;48.892;15.312;2022-08-23T06:14:24;4.30;;;1.10;;
3647;SDS011;1840;48.892;15.312;2022-08-23T06:16:54;4.37;;;1.30;;
3647;SDS011;1840;48.892;15.312;2022-08-23T06:19:22;3.53;;;1.80;;
3647;SDS011;1840;48.892;15.312;2022-08-23T06:21:51;2.13;;;1.30;;
3647;SDS011;1840;48.892;15.312;2022-08-23T06:24:20;2.30;;;0.93;;
3647;SDS011;1840;48.892;15.312;2022-08-23T06:26:49;2.33;;;1.10;;
3647;SDS011;1840;48.892;15.312;2022-08-23T06:29:18;2.70;;;1.10;;
3647;SDS011;1840;48.892;15.312;2022-08-23T06:31:48;2.50;;;1.20;;
3647;SDS011;1840;48.892;15.312;2022-08-23T06:34:20;4.80;;;2.60;;
3647;SDS011;1840;48.892;15.312;2022-08-23T06:36:51;2.10;;;1.27;;
3647;SDS011;1840;48.892;15.312;2022-08-23T06:39:21;1.70;;;1.10;;
3647;SDS011;1840;48.892;15.312;2022-08-23T06:41:51;2.70;;;1.23;;
3647;SDS011;1840;48.892;15.312;2022-08-23T06:44:23;2.00;;;1.10;;
3647;SDS011;1840;48.892;15.312;2022-08-23T06:46:51;4.47;;;1.40;;
3647;SDS011;1840;48.892;15.312;2022-08-23T06:49:23;1.20;;;0.80;;
3647;SDS011;1840;48.892;15.312;2022-08-23T06:51:53;1.60;;;1.10;;
3647;SDS011;1840;48.892;15.312;2022-08-23T06:54:26;1.50;;;0.90;;
3647;SDS011;1840;48.892;15.312;2022-08-23T06:56:57;2.77;;;1.30;;
3647;SDS011;1840;48.892;15.312;2022-08-23T06:59:26;1.60;;;1.03;;
3647;SDS011;1840;48.892;15.312;2022-08-23T07:01:55;4.13;;;0.90;;
3647;SDS011;1840;48.892;15.312;2022-08-23T07:04:27;2.43;;;0.90;;
3647;SDS011;1840;48.892;15.312;2022-08-23T07:06:57;2.07;;;1.13;;
3647;SDS011;1840;48.892;15.312;2022-08-23T07:09:27;2.60;;;1.40;;
3647;SDS011;1840;48.892;15.312;2022-08-23T07:11:56;2.87;;;1.40;;
3647;SDS011;1840;48.892;15.312;2022-08-23T07:14:25;1.60;;;0.93;;
3647;SDS011;1840;48.892;15.312;2022-08-23T07:16:55;2.00;;;0.97;;
3647;SDS011;1840;48.892;15.312;2022-08-23T07:19:28;1.70;;;0.90;;
3647;SDS011;1840;48.892;15.312;2022-08-23T07:21:58;6.43;;;1.30;;
3647;SDS011;1840;48.892;15.312;2022-08-23T07:24:27;1.80;;;1.00;;
3647;SDS011;1840;48.892;15.312;2022-08-23T07:27:00;1.27;;;0.87;;
3647;SDS011;1840;48.892;15.312;2022-08-23T07:29:32;1.80;;;1.00;;
3647;SDS011;1840;48.892;15.312;2022-08-23T07:32:02;1.20;;;0.70;;
3647;SDS011;1840;48.892;15.312;2022-08-23T07:34:33;4.13;;;1.40;;
3647;SDS011;1840;48.892;15.312;2022-08-23T07:37:02;3.43;;;1.00;;
3647;SDS011;1840;48.892;15.312;2022-08-23T07:39:41;3.60;;;1.23;;
3647;SDS011;1840;48.892;15.312;2022-08-23T07:42:09;1.40;;;0.90;;
3647;SDS011;1840;48.892;15.312;2022-08-23T07:44:49;1.70;;;1.00;;
3647;SDS011;1840;48.892;15.312;2022-08-23T07:47:18;1.43;;;0.90;;
3647;SDS011;1840;48.892;15.312;2022-08-23T07:49:48;1.83;;;1.00;;
3647;SDS011;1840;48.892;15.312;2022-08-23T07:52:16;2.97;;;1.23;;
3647;SDS011;1840;48.892;15.312;2022-08-23T07:54:45;2.00;;;1.20;;
3647;SDS011;1840;48.892;15.312;2022-08-23T07:57:15;2.07;;;1.00;;
3647;SDS011;1840;48.892;15.312;2022-08-23T07:59:44;1.40;;;0.80;;
3647;SDS011;1840;48.892;15.312;2022-08-23T08:02:13;2.67;;;1.10;;
3647;SDS011;1840;48.892;15.312;2022-08-23T08:04:42;2.53;;;0.90;;
3647;SDS011;1840;48.892;15.312;2022-08-23T08:07:11;3.43;;;1.30;;
3647;SDS011;1840;48.892;15.312;2022-08-23T08:09:47;2.00;;;1.30;;
3647;SDS011;1840;48.892;15.312;2022-08-23T08:12:15;3.00;;;1.50;;
3647;SDS011;1840;48.892;15.312;2022-08-23T08:14:44;3.00;;;1.40;;
3647;SDS011;1840;48.892;15.312;2022-08-23T08:17:14;1.80;;;1.30;;
3647;SDS011;1840;48.892;15.312;2022-08-23T08:19:43;2.40;;;1.50;;
3647;SDS011;1840;48.892;15.312;2022-08-23T08:22:13;4.70;;;1.60;;
3647;SDS011;1840;48.892;15.312;2022-08-23T08:24:42;2.10;;;1.80;;
3647;SDS011;1840;48.892;15.312;2022-08-23T08:27:10;2.43;;;1.73;;
3647;SDS011;1840;48.892;15.312;2022-08-23T08:29:39;3.37;;;2.17;;
3647;SDS011;1840;48.892;15.312;2022-08-23T08:32:09;3.70;;;1.93;;
3647;SDS011;1840;48.892;15.312;2022-08-23T08:34:39;2.30;;;1.70;;
3647;SDS011;1840;48.892;15.312;2022-08-23T08:37:08;4.53;;;1.77;;
3647;SDS011;1840;48.892;15.312;2022-08-23T08:39:37;2.77;;;1.93;;
3647;SDS011;1840;48.892;15.312;2022-08-23T08:45:05;2.80;;;2.20;;
3647;SDS011;1840;48.892;15.312;2022-08-23T08:47:40;2.63;;;2.20;;
3647;SDS011;1840;48.892;15.312;2022-08-23T08:50:14;3.40;;;2.13;;
3647;SDS011;1840;48.892;15.312;2022-08-23T08:52:51;4.70;;;2.03;;
3647;SDS011;1840;48.892;15.312;2022-08-23T08:55:26;3.87;;;1.90;;
3647;SDS011;1840;48.892;15.312;2022-08-23T08:57:57;3.40;;;2.27;;
3647;SDS011;1840;48.892;15.312;2022-08-23T09:00:27;4.30;;;2.73;;
3647;SDS011;1840;48.892;15.312;2022-08-23T09:02:58;2.43;;;1.93;;
3647;SDS011;1840;48.892;15.312;2022-08-23T09:05:29;4.57;;;2.63;;
3647;SDS011;1840;48.892;15.312;2022-08-23T09:08:13;3.60;;;2.40;;
3647;SDS011;1840;48.892;15.312;2022-08-23T09:10:52;3.60;;;3.17;;
3647;SDS011;1840;48.892;15.312;2022-08-23T09:13:34;6.13;;;3.43;;
3647;SDS011;1840;48.892;15.312;2022-08-23T09:16:22;6.53;;;3.07;;
3647;SDS011;1840;48.892;15.312;2022-08-23T09:18:58;5.37;;;3.00;;
3647;SDS011;1840;48.892;15.312;2022-08-23T09:21:29;4.37;;;3.13;;
3647;SDS011;1840;48.892;15.312;2022-08-23T09:24:07;2.30;;;1.93;;
3647;SDS011;1840;48.892;15.312;2022-08-23T09:26:36;2.60;;;1.80;;
3647;SDS011;1840;48.892;15.312;2022-08-23T09:29:07;3.53;;;2.37;;
3647;SDS011;1840;48.892;15.312;2022-08-23T09:31:43;3.37;;;2.40;;
3647;SDS011;1840;48.892;15.312;2022-08-23T09:34:14;3.80;;;2.40;;
3647;SDS011;1840;48.892;15.312;2022-08-23T09:36:44;2.73;;;1.97;;
3647;SDS011;1840;48.892;15.312;2022-08-23T09:39:23;3.23;;;2.40;;
3647;SDS011;1840;48.892;15.312;2022-08-23T09:41:57;3.10;;;2.43;;
3647;SDS011;1840;48.892;15.312;2022-08-23T09:44:31;4.03;;;3.30;;
3647;SDS011;1840;48.892;15.312;2022-08-23T09:47:06;5.80;;;3.70;;
3647;SDS011;1840;48.892;15.312;2022-08-23T09:49:40;5.90;;;2.80;;
3647;SDS011;1840;48.892;15.312;2022-08-23T09:52:11;4.43;;;2.30;;
3647;SDS011;1840;48.892;15.312;2022-08-23T09:54:55;3.77;;;2.80;;
3647;SDS011;1840;48.892;15.312;2022-08-23T09:57:28;4.13;;;3.73;;
3647;SDS011;1840;48.892;15.312;2022-08-23T09:59:59;5.90;;;4.17;;
3647;SDS011;1840;48.892;15.312;2022-08-23T10:02:43;4.53;;;3.43;;
3647;SDS011;1840;48.892;15.312;2022-08-23T10:05:15;5.20;;;3.20;;
3647;SDS011;1840;48.892;15.312;2022-08-23T10:07:52;5.03;;;4.03;;
3647;SDS011;1840;48.892;15.312;2022-08-23T10:10:24;4.20;;;3.37;;
3647;SDS011;1840;48.892;15.312;2022-08-23T10:12:58;5.30;;;4.43;;
3647;SDS011;1840;48.892;15.312;2022-08-23T10:15:33;10.40;;;4.80;;
3647;SDS011;1840;48.892;15.312;2022-08-23T10:18:10;6.90;;;4.97;;
3647;SDS011;1840;48.892;15.312;2022-08-23T10:20:46;6.50;;;5.03;;
3647;SDS011;1840;48.892;15.312;2022-08-23T10:23:27;6.70;;;4.90;;
3647;SDS011;1840;48.892;15.312;2022-08-23T10:26:06;11.03;;;9.43;;
3647;SDS011;1840;48.892;15.312;2022-08-23T10:28:42;8.83;;;6.77;;
3647;SDS011;1840;48.892;15.312;2022-08-23T10:31:36;9.87;;;6.93;;
3647;SDS011;1840;48.892;15.312;2022-08-23T10:34:23;8.60;;;7.03;;
3647;SDS011;1840;48.892;15.312;2022-08-23T10:37:11;12.67;;;7.80;;
3647;SDS011;1840;48.892;15.312;2022-08-23T10:40:09;13.10;;;7.20;;
3647;SDS011;1840;48.892;15.312;2022-08-23T10:42:48;9.30;;;6.70;;
3647;SDS011;1840;48.892;15.312;2022-08-23T10:45:25;8.33;;;7.23;;
3647;SDS011;1840;48.892;15.312;2022-08-23T10:47:59;7.87;;;6.80;;
3647;SDS011;1840;48.892;15.312;2022-08-23T10:50:41;10.10;;;7.23;;
3647;SDS011;1840;48.892;15.312;2022-08-23T10:53:22;12.23;;;7.90;;
3647;SDS011;1840;48.892;15.312;2022-08-23T10:55:54;10.23;;;6.53;;
3647;SDS011;1840;48.892;15.312;2022-08-23T10:58:31;11.77;;;7.50;;
3647;SDS011;1840;48.892;15.312;2022-08-23T11:01:06;8.40;;;6.90;;
3647;SDS011;1840;48.892;15.312;2022-08-23T11:03:41;8.30;;;7.13;;
3647;SDS011;1840;48.892;15.312;2022-08-23T11:12:21;11.60;;;7.43;;
3647;SDS011;1840;48.892;15.312;2022-08-23T11:15:04;8.33;;;6.90;;
3647;SDS011;1840;48.892;15.312;2022-08-23T11:17:54;8.03;;;6.90;;
3647;SDS011;1840;48.892;15.312;2022-08-23T11:23:38;9.70;;;7.50;;
3647;SDS011;1840;48.892;15.312;2022-08-23T11:29:27;9.37;;;7.03;;
3647;SDS011;1840;48.892;15.312;2022-08-23T11:32:00;9.20;;;7.50;;
3647;SDS011;1840;48.892;15.312;2022-08-23T11:34:47;9.30;;;6.10;;
3647;SDS011;1840;48.892;15.312;2022-08-23T11:37:27;10.93;;;7.47;;
3647;SDS011;1840;48.892;15.312;2022-08-23T11:40:15;9.90;;;7.43;;
3647;SDS011;1840;48.892;15.312;2022-08-23T11:43:09;12.00;;;7.80;;
3647;SDS011;1840;48.892;15.312;2022-08-23T11:45:47;11.20;;;8.30;;
3647;SDS011;1840;48.892;15.312;2022-08-23T11:48:16;14.63;;;9.93;;
3647;SDS011;1840;48.892;15.312;2022-08-23T11:50:59;11.70;;;8.73;;
3647;SDS011;1840;48.892;15.312;2022-08-23T12:02:44;14.33;;;9.83;;
3647;SDS011;1840;48.892;15.312;2022-08-23T12:05:23;11.83;;;9.17;;
3647;SDS011;1840;48.892;15.312;2022-08-23T12:11:01;10.53;;;7.50;;
3647;SDS011;1840;48.892;15.312;2022-08-23T12:13:44;12.63;;;9.00;;
3647;SDS011;1840;48.892;15.312;2022-08-23T12:16:32;13.60;;;10.53;;
3647;SDS011;1840;48.892;15.312;2022-08-23T12:19:09;13.70;;;9.90;;
3647;SDS011;1840;48.892;15.312;2022-08-23T12:21:55;11.80;;;9.70;;
3647;SDS011;1840;48.892;15.312;2022-08-23T12:24:27;13.67;;;8.23;;
3647;SDS011;1840;48.892;15.312;2022-08-23T12:27:03;11.17;;;8.77;;
3647;SDS011;1840;48.892;15.312;2022-08-23T12:29:43;17.33;;;10.40;;
3647;SDS011;1840;48.892;15.312;2022-08-23T12:32:20;14.17;;;11.80;;
3647;SDS011;1840;48.892;15.312;2022-08-23T12:34:59;17.03;;;11.00;;
3647;SDS011;1840;48.892;15.312;2022-08-23T12:37:39;12.27;;;8.93;;
3647;SDS011;1840;48.892;15.312;2022-08-23T12:40:23;13.47;;;9.60;;
3647;SDS011;1840;48.892;15.312;2022-08-23T12:43:05;10.33;;;8.33;;
3647;SDS011;1840;48.892;15.312;2022-08-23T12:45:47;9.63;;;7.10;;
3647;SDS011;1840;48.892;15.312;2022-08-23T12:48:17;11.60;;;7.70;;
3647;SDS011;1840;48.892;15.312;2022-08-23T12:50:51;10.70;;;7.27;;
3647;SDS011;1840;48.892;15.312;2022-08-23T12:53:26;6.50;;;5.37;;
3647;SDS011;1840;48.892;15.312;2022-08-23T12:55:59;6.20;;;5.13;;
3647;SDS011;1840;48.892;15.312;2022-08-23T12:58:31;7.17;;;5.80;;
3647;SDS011;1840;48.892;15.312;2022-08-23T13:01:02;6.37;;;5.27;;
3647;SDS011;1840;48.892;15.312;2022-08-23T13:03:33;6.43;;;4.50;;
3647;SDS011;1840;48.892;15.312;2022-08-23T13:06:05;6.13;;;4.73;;
3647;SDS011;1840;48.892;15.312;2022-08-23T13:08:38;6.50;;;5.40;;
3647;SDS011;1840;48.892;15.312;2022-08-23T13:11:10;6.73;;;4.87;;
3647;SDS011;1840;48.892;15.312;2022-08-23T13:13:41;4.97;;;3.77;;
3647;SDS011;1840;48.892;15.312;2022-08-23T13:16:24;5.13;;;3.53;;
3647;SDS011;1840;48.892;15.312;2022-08-23T13:19:09;4.73;;;3.63;;
3647;SDS011;1840;48.892;15.312;2022-08-23T13:21:43;4.10;;;3.23;;
3647;SDS011;1840;48.892;15.312;2022-08-23T13:24:32;4.70;;;3.20;;
3647;SDS011;1840;48.892;15.312;2022-08-23T13:27:16;4.93;;;3.00;;
3647;SDS011;1840;48.892;15.312;2022-08-23T13:29:48;4.43;;;2.90;;
3647;SDS011;1840;48.892;15.312;2022-08-23T13:35:26;3.23;;;2.30;;
3647;SDS011;1840;48.892;15.312;2022-08-23T13:38:07;2.97;;;2.17;;
3647;SDS011;1840;48.892;15.312;2022-08-23T13:40:50;3.97;;;2.40;;
3647;SDS011;1840;48.892;15.312;2022-08-23T13:43:25;4.10;;;2.33;;
3647;SDS011;1840;48.892;15.312;2022-08-23T13:45:58;2.70;;;1.60;;
3647;SDS011;1840;48.892;15.312;2022-08-23T13:48:36;3.90;;;2.07;;
3647;SDS011;1840;48.892;15.312;2022-08-23T13:51:16;2.97;;;1.87;;
3647;SDS011;1840;48.892;15.312;2022-08-23T13:53:54;8.87;;;4.00;;
3647;SDS011;1840;48.892;15.312;2022-08-23T13:56:24;2.50;;;1.70;;
3647;SDS011;1840;48.892;15.312;2022-08-23T13:58:56;3.17;;;1.70;;
3647;SDS011;1840;48.892;15.312;2022-08-23T14:01:26;4.93;;;1.83;;
3647;SDS011;1840;48.892;15.312;2022-08-23T14:03:54;2.80;;;1.50;;
3647;SDS011;1840;48.892;15.312;2022-08-23T14:06:23;2.83;;;1.57;;
3647;SDS011;1840;48.892;15.312;2022-08-23T14:08:51;4.23;;;1.40;;
3647;SDS011;1840;48.892;15.312;2022-08-23T14:11:20;2.70;;;1.60;;
3647;SDS011;1840;48.892;15.312;2022-08-23T14:13:48;3.00;;;1.73;;
3647;SDS011;1840;48.892;15.312;2022-08-23T14:16:20;3.97;;;1.63;;
3647;SDS011;1840;48.892;15.312;2022-08-23T14:19:05;2.70;;;1.73;;
3647;SDS011;1840;48.892;15.312;2022-08-23T14:21:54;4.33;;;2.43;;
3647;SDS011;1840;48.892;15.312;2022-08-23T14:24:22;3.00;;;2.20;;
3647;SDS011;1840;48.892;15.312;2022-08-23T14:26:52;4.47;;;1.80;;
3647;SDS011;1840;48.892;15.312;2022-08-23T14:29:22;3.00;;;1.73;;
3647;SDS011;1840;48.892;15.312;2022-08-23T14:31:55;3.27;;;1.60;;
3647;SDS011;1840;48.892;15.312;2022-08-23T14:34:27;3.77;;;1.80;;
3647;SDS011;1840;48.892;15.312;2022-08-23T14:36:57;4.23;;;2.50;;
3647;SDS011;1840;48.892;15.312;2022-08-23T14:39:46;7.20;;;2.87;;
3647;SDS011;1840;48.892;15.312;2022-08-23T14:42:15;3.93;;;2.33;;
3647;SDS011;1840;48.892;15.312;2022-08-23T14:44:49;4.33;;;2.53;;
3647;SDS011;1840;48.892;15.312;2022-08-23T14:47:19;3.83;;;2.23;;
3647;SDS011;1840;48.892;15.312;2022-08-23T14:49:47;6.77;;;2.57;;
3647;SDS011;1840;48.892;15.312;2022-08-23T14:52:22;4.87;;;2.80;;
3647;SDS011;1840;48.892;15.312;2022-08-23T14:54:50;4.67;;;2.80;;
3647;SDS011;1840;48.892;15.312;2022-08-23T14:57:19;3.90;;;2.30;;
3647;SDS011;1840;48.892;15.312;2022-08-23T14:59:49;5.23;;;2.67;;
3647;SDS011;1840;48.892;15.312;2022-08-23T15:02:24;3.63;;;2.30;;
3647;SDS011;1840;48.892;15.312;2022-08-23T15:04:54;4.20;;;3.03;;
3647;SDS011;1840;48.892;15.312;2022-08-23T15:07:22;4.67;;;3.20;;
3647;SDS011;1840;48.892;15.312;2022-08-23T15:09:51;5.07;;;3.17;;
3647;SDS011;1840;48.892;15.312;2022-08-23T15:12:21;12.50;;;3.40;;
3647;SDS011;1840;48.892;15.312;2022-08-23T15:15:10;4.57;;;3.00;;
3647;SDS011;1840;48.892;15.312;2022-08-23T15:17:44;6.20;;;3.97;;
3647;SDS011;1840;48.892;15.312;2022-08-23T15:20:17;7.43;;;4.03;;
3647;SDS011;1840;48.892;15.312;2022-08-23T15:22:46;6.63;;;4.30;;
3647;SDS011;1840;48.892;15.312;2022-08-23T15:25:31;6.43;;;3.97;;
3647;SDS011;1840;48.892;15.312;2022-08-23T15:28:04;5.20;;;4.07;;
3647;SDS011;1840;48.892;15.312;2022-08-23T15:30:38;10.47;;;4.53;;
3647;SDS011;1840;48.892;15.312;2022-08-23T15:33:08;5.00;;;4.07;;
3647;SDS011;1840;48.892;15.312;2022-08-23T15:35:37;11.60;;;4.63;;
3647;SDS011;1840;48.892;15.312;2022-08-23T15:38:09;6.27;;;4.23;;
3647;SDS011;1840;48.892;15.312;2022-08-23T15:40:40;7.23;;;4.60;;
3647;SDS011;1840;48.892;15.312;2022-08-23T15:43:08;12.90;;;5.10;;
3647;SDS011;1840;48.892;15.312;2022-08-23T15:45:37;9.63;;;5.23;;
3647;SDS011;1840;48.892;15.312;2022-08-23T15:48:14;8.77;;;4.87;;
3647;SDS011;1840;48.892;15.312;2022-08-23T15:50:47;7.43;;;4.80;;
3647;SDS011;1840;48.892;15.312;2022-08-23T15:53:17;9.87;;;4.80;;
3647;SDS011;1840;48.892;15.312;2022-08-23T15:55:46;6.60;;;4.50;;
3647;SDS011;1840;48.892;15.312;2022-08-23T15:58:16;7.97;;;5.20;;
3647;SDS011;1840;48.892;15.312;2022-08-23T16:00:47;7.67;;;5.80;;
3647;SDS011;1840;48.892;15.312;2022-08-23T16:03:18;7.03;;;5.23;;